Weather at Sinj Piket Airfield

Public forecast

Using degrees Celsius for public forecast. Weather courtesy of forecast.io.

Closest aviation weather report (METAR) to Sinj Piket Airfield

Closest report is Split Airport, 18.9 nm (35.0 km) WSW.

2024/05/20 11:30 (retrieved 12 minutes ago)

LDSP 201130Z 24011KT 210V270 CAVOK 24/16 Q1011 NOSIG

Closest aviation forecast (TAF) to Sinj Piket Airfield

Closest forecast is Split Airport, 18.9 nm (35.0 km) WSW.

2024/05/20 06:30 Correction (retrieved 5 hours ago)

TAF COR LDSP 200527Z 2006/2106 VRB02KT CAVOK TX26/2015Z TN19/2101Z BECMG 2009/2011 23008KT BECMG 2014/2016 VRB02KT PROB30 TEMPO 2022/2106 TSRA FEW040CB SCT050 BECMG 2104/2106 11010KT